Saunemin, Illinois
Current Conditions -  °F | °C
As of 2:15 AM on Monday 24 Nov 2014 (Local Time) from KPNT Reporting Station
Moderate Rain Moderate Rain  
Wind Chill: 50°   Ceiling: 200
Heat Index: 50°   Visibility: 4mi
Dew Point: 50°   Wind: 8mph
Humidity: 100%   Direction: 220°SW
Pressure: 29.14"   Gusts: NA
Location:  40.89°N, 88.41°W
Report Text: KPNT 240815Z AUTO 22007KT 4SM RA OVC002 10/10 A2914 RMK AO2 T01000100
Loading
Personal Weather Stations






























Interactive Weather Map New forecast layout! Learn more

10-Day Weather Forecast

Advertisements
Track Severe Weather on mobile